sensor_id;sensor_type;location;lat;lon;timestamp;pressure;altitude;pressure_sealevel;temperature;humidity
48053;BME280;33824;51.600;5.718;2023-03-19T00:00:04;100903.84;;;12.10;88.98
48053;BME280;33824;51.600;5.718;2023-03-19T00:02:32;100898.69;;;12.09;88.39
48053;BME280;33824;51.600;5.718;2023-03-19T00:04:58;100902.66;;;12.13;88.45
48053;BME280;33824;51.600;5.718;2023-03-19T00:07:25;100899.78;;;12.14;88.13
48053;BME280;33824;51.600;5.718;2023-03-19T00:09:52;100904.13;;;12.15;88.37
48053;BME280;33824;51.600;5.718;2023-03-19T00:12:17;100903.13;;;12.16;88.33
48053;BME280;33824;51.600;5.718;2023-03-19T00:14:43;100902.28;;;12.16;88.46
48053;BME280;33824;51.600;5.718;2023-03-19T00:17:08;100913.81;;;12.16;88.50
48053;BME280;33824;51.600;5.718;2023-03-19T00:19:34;100914.44;;;12.18;88.57
48053;BME280;33824;51.600;5.718;2023-03-19T00:22:00;100913.63;;;12.18;88.78
48053;BME280;33824;51.600;5.718;2023-03-19T00:24:26;100910.13;;;12.17;88.81
48053;BME280;33824;51.600;5.718;2023-03-19T00:26:53;100908.84;;;12.13;89.50
48053;BME280;33824;51.600;5.718;2023-03-19T00:29:19;100911.69;;;12.12;89.57
48053;BME280;33824;51.600;5.718;2023-03-19T00:31:45;100911.06;;;12.10;89.65
48053;BME280;33824;51.600;5.718;2023-03-19T00:34:10;100907.53;;;12.09;89.99
48053;BME280;33824;51.600;5.718;2023-03-19T00:36:37;100912.06;;;12.09;89.84
48053;BME280;33824;51.600;5.718;2023-03-19T00:39:03;100905.22;;;12.06;90.29
48053;BME280;33824;51.600;5.718;2023-03-19T00:41:29;100904.22;;;12.07;90.00
48053;BME280;33824;51.600;5.718;2023-03-19T00:43:55;100909.91;;;12.04;90.68
48053;BME280;33824;51.600;5.718;2023-03-19T00:46:25;100906.25;;;12.05;90.99
48053;BME280;33824;51.600;5.718;2023-03-19T00:48:50;100913.44;;;12.05;90.99
48053;BME280;33824;51.600;5.718;2023-03-19T00:51:19;100914.44;;;12.03;91.52
48053;BME280;33824;51.600;5.718;2023-03-19T00:53:46;100920.63;;;12.04;91.29
48053;BME280;33824;51.600;5.718;2023-03-19T00:56:12;100921.63;;;12.03;91.66
48053;BME280;33824;51.600;5.718;2023-03-19T00:58:38;100919.78;;;12.03;91.73
48053;BME280;33824;51.600;5.718;2023-03-19T01:01:06;100921.81;;;12.01;92.21
48053;BME280;33824;51.600;5.718;2023-03-19T01:03:32;100916.94;;;12.05;91.79
48053;BME280;33824;51.600;5.718;2023-03-19T01:05:58;100924.94;;;12.05;91.47
48053;BME280;33824;51.600;5.718;2023-03-19T01:08:24;100923.28;;;12.04;92.06
48053;BME280;33824;51.600;5.718;2023-03-19T01:10:50;100919.13;;;12.01;92.20
48053;BME280;33824;51.600;5.718;2023-03-19T01:13:16;100922.44;;;12.03;92.06
48053;BME280;33824;51.600;5.718;2023-03-19T01:15:42;100923.66;;;12.01;92.56
48053;BME280;33824;51.600;5.718;2023-03-19T01:18:09;100929.84;;;12.01;92.64
48053;BME280;33824;51.600;5.718;2023-03-19T01:20:37;100917.31;;;12.02;92.23
48053;BME280;33824;51.600;5.718;2023-03-19T01:23:04;100919.31;;;12.00;92.76
48053;BME280;33824;51.600;5.718;2023-03-19T01:25:30;100911.47;;;11.98;92.62
48053;BME280;33824;51.600;5.718;2023-03-19T01:27:56;100918.53;;;11.91;93.22
48053;BME280;33824;51.600;5.718;2023-03-19T01:30:22;100909.44;;;11.86;93.15
48053;BME280;33824;51.600;5.718;2023-03-19T01:32:48;100914.00;;;11.77;93.58
48053;BME280;33824;51.600;5.718;2023-03-19T01:35:14;100916.53;;;11.71;93.71
48053;BME280;33824;51.600;5.718;2023-03-19T01:37:40;100916.91;;;11.68;93.41
48053;BME280;33824;51.600;5.718;2023-03-19T01:40:06;100906.75;;;11.63;93.19
48053;BME280;33824;51.600;5.718;2023-03-19T01:42:33;100904.25;;;11.62;93.40
48053;BME280;33824;51.600;5.718;2023-03-19T01:45:02;100909.59;;;11.62;93.63
48053;BME280;33824;51.600;5.718;2023-03-19T01:47:32;100908.13;;;11.59;94.50
48053;BME280;33824;51.600;5.718;2023-03-19T01:49:58;100908.06;;;11.67;94.13
48053;BME280;33824;51.600;5.718;2023-03-19T01:52:28;100900.88;;;11.68;93.94
48053;BME280;33824;51.600;5.718;2023-03-19T01:54:58;100903.56;;;11.68;94.34
48053;BME280;33824;51.600;5.718;2023-03-19T01:57:25;100906.03;;;11.69;94.75
48053;BME280;33824;51.600;5.718;2023-03-19T01:59:52;100897.84;;;11.71;94.43
48053;BME280;33824;51.600;5.718;2023-03-19T02:02:30;100906.09;;;11.61;94.98
48053;BME280;33824;51.600;5.718;2023-03-19T02:05:01;100907.03;;;11.68;95.32
48053;BME280;33824;51.600;5.718;2023-03-19T02:07:29;100909.53;;;11.70;95.34
48053;BME280;33824;51.600;5.718;2023-03-19T02:09:56;100913.03;;;11.70;95.64
48053;BME280;33824;51.600;5.718;2023-03-19T02:12:23;100905.69;;;11.72;95.41
48053;BME280;33824;51.600;5.718;2023-03-19T02:14:48;100901.38;;;11.71;96.23
48053;BME280;33824;51.600;5.718;2023-03-19T02:17:14;100911.50;;;11.76;95.53
48053;BME280;33824;51.600;5.718;2023-03-19T02:22:13;100910.69;;;11.75;96.08
48053;BME280;33824;51.600;5.718;2023-03-19T02:24:50;100900.03;;;11.67;96.50
48053;BME280;33824;51.600;5.718;2023-03-19T02:27:18;100902.13;;;11.80;95.77
48053;BME280;33824;51.600;5.718;2023-03-19T02:29:44;100908.50;;;11.79;96.59
48053;BME280;33824;51.600;5.718;2023-03-19T02:32:10;100914.94;;;11.84;95.76
48053;BME280;33824;51.600;5.718;2023-03-19T02:34:39;100914.94;;;11.84;95.84
48053;BME280;33824;51.600;5.718;2023-03-19T02:37:13;100917.16;;;11.81;95.61
48053;BME280;33824;51.600;5.718;2023-03-19T02:40:03;100916.22;;;11.74;96.82
48053;BME280;33824;51.600;5.718;2023-03-19T02:42:32;100907.00;;;11.76;96.81
48053;BME280;33824;51.600;5.718;2023-03-19T02:44:58;100909.13;;;11.81;96.33
48053;BME280;33824;51.600;5.718;2023-03-19T02:47:25;100906.16;;;11.76;96.92
48053;BME280;33824;51.600;5.718;2023-03-19T02:49:50;100910.13;;;11.80;96.60
48053;BME280;33824;51.600;5.718;2023-03-19T02:52:16;100910.88;;;11.74;97.43
48053;BME280;33824;51.600;5.718;2023-03-19T02:54:42;100916.91;;;11.68;98.29
48053;BME280;33824;51.600;5.718;2023-03-19T02:57:08;100923.41;;;11.65;99.01
48053;BME280;33824;51.600;5.718;2023-03-19T02:59:33;100925.72;;;11.68;99.00
48053;BME280;33824;51.600;5.718;2023-03-19T03:01:59;100920.75;;;11.65;99.30
48053;BME280;33824;51.600;5.718;2023-03-19T03:04:24;100918.38;;;11.70;98.78
48053;BME280;33824;51.600;5.718;2023-03-19T03:06:51;100925.06;;;11.74;98.27
48053;BME280;33824;51.600;5.718;2023-03-19T03:09:17;100923.22;;;11.75;98.17
48053;BME280;33824;51.600;5.718;2023-03-19T03:11:43;100924.06;;;11.75;98.18
48053;BME280;33824;51.600;5.718;2023-03-19T03:14:09;100928.22;;;11.70;99.15
48053;BME280;33824;51.600;5.718;2023-03-19T03:16:35;100931.59;;;11.72;98.89
48053;BME280;33824;51.600;5.718;2023-03-19T03:19:02;100933.91;;;11.75;98.92
48053;BME280;33824;51.600;5.718;2023-03-19T03:21:28;100930.06;;;11.69;99.67
48053;BME280;33824;51.600;5.718;2023-03-19T03:23:54;100935.53;;;11.76;99.06
48053;BME280;33824;51.600;5.718;2023-03-19T03:26:20;100929.56;;;11.74;99.38
48053;BME280;33824;51.600;5.718;2023-03-19T03:28:46;100931.41;;;11.73;99.52
48053;BME280;33824;51.600;5.718;2023-03-19T03:31:12;100928.56;;;11.75;99.15
48053;BME280;33824;51.600;5.718;2023-03-19T03:33:41;100929.41;;;11.75;99.42
48053;BME280;33824;51.600;5.718;2023-03-19T03:36:07;100937.22;;;11.77;99.31
48053;BME280;33824;51.600;5.718;2023-03-19T03:38:32;100931.22;;;11.75;99.46
48053;BME280;33824;51.600;5.718;2023-03-19T03:40:59;100926.72;;;11.75;99.86
48053;BME280;33824;51.600;5.718;2023-03-19T03:43:24;100931.88;;;11.77;99.34
48053;BME280;33824;51.600;5.718;2023-03-19T03:45:50;100935.22;;;11.79;99.18
48053;BME280;33824;51.600;5.718;2023-03-19T03:48:16;100931.50;;;11.80;99.16
48053;BME280;33824;51.600;5.718;2023-03-19T03:50:43;100934.66;;;11.83;98.59
48053;BME280;33824;51.600;5.718;2023-03-19T03:53:10;100933.84;;;11.83;98.64
48053;BME280;33824;51.600;5.718;2023-03-19T03:55:37;100931.16;;;11.83;98.46
48053;BME280;33824;51.600;5.718;2023-03-19T03:58:03;100935.00;;;11.80;98.66
48053;BME280;33824;51.600;5.718;2023-03-19T04:00:31;100937.88;;;11.79;98.61
48053;BME280;33824;51.600;5.718;2023-03-19T04:02:56;100949.03;;;11.82;98.73
48053;BME280;33824;51.600;5.718;2023-03-19T04:05:24;100949.88;;;11.83;98.01
48053;BME280;33824;51.600;5.718;2023-03-19T04:07:50;100953.53;;;11.82;97.90
48053;BME280;33824;51.600;5.718;2023-03-19T04:10:16;100950.88;;;11.82;97.72
48053;BME280;33824;51.600;5.718;2023-03-19T04:12:41;100944.38;;;11.76;97.66
48053;BME280;33824;51.600;5.718;2023-03-19T04:15:09;100951.44;;;11.69;97.52
48053;BME280;33824;51.600;5.718;2023-03-19T04:17:35;100943.94;;;11.65;97.67
48053;BME280;33824;51.600;5.718;2023-03-19T04:20:02;100950.19;;;11.57;97.33
48053;BME280;33824;51.600;5.718;2023-03-19T04:22:29;100946.56;;;11.50;97.02
48053;BME280;33824;51.600;5.718;2023-03-19T04:24:56;100945.97;;;11.40;97.25
48053;BME280;33824;51.600;5.718;2023-03-19T04:27:21;100949.22;;;11.27;97.41
48053;BME280;33824;51.600;5.718;2023-03-19T04:29:47;100956.25;;;11.20;97.56
48053;BME280;33824;51.600;5.718;2023-03-19T04:32:13;100957.81;;;11.15;98.09
48053;BME280;33824;51.600;5.718;2023-03-19T04:34:38;100958.94;;;11.20;98.01
48053;BME280;33824;51.600;5.718;2023-03-19T04:37:04;100962.13;;;11.16;97.48
48053;BME280;33824;51.600;5.718;2023-03-19T04:39:30;100965.66;;;11.08;97.67
48053;BME280;33824;51.600;5.718;2023-03-19T04:41:56;100971.88;;;11.00;97.90
48053;BME280;33824;51.600;5.718;2023-03-19T04:44:21;100969.06;;;10.94;97.82
48053;BME280;33824;51.600;5.718;2023-03-19T04:46:47;100962.41;;;10.90;97.44
48053;BME280;33824;51.600;5.718;2023-03-19T04:49:13;100961.25;;;10.84;97.40
48053;BME280;33824;51.600;5.718;2023-03-19T04:51:40;100961.44;;;10.83;97.34
48053;BME280;33824;51.600;5.718;2023-03-19T04:54:06;100964.97;;;10.75;97.70
48053;BME280;33824;51.600;5.718;2023-03-19T04:56:32;100968.81;;;10.73;97.72
48053;BME280;33824;51.600;5.718;2023-03-19T04:58:59;100965.63;;;10.69;97.28
48053;BME280;33824;51.600;5.718;2023-03-19T05:01:24;100970.84;;;10.63;97.01
48053;BME280;33824;51.600;5.718;2023-03-19T05:03:50;100968.88;;;10.56;97.08
48053;BME280;33824;51.600;5.718;2023-03-19T05:06:16;100970.38;;;10.51;97.22
48053;BME280;33824;51.600;5.718;2023-03-19T05:08:42;100975.41;;;10.46;97.56
48053;BME280;33824;51.600;5.718;2023-03-19T05:11:07;100984.72;;;10.42;97.76
48053;BME280;33824;51.600;5.718;2023-03-19T05:13:33;100988.53;;;10.39;97.63
48053;BME280;33824;51.600;5.718;2023-03-19T05:15:59;100988.56;;;10.31;98.35
48053;BME280;33824;51.600;5.718;2023-03-19T05:18:25;100987.22;;;10.27;98.23
48053;BME280;33824;51.600;5.718;2023-03-19T05:20:50;101001.06;;;10.23;99.04
48053;BME280;33824;51.600;5.718;2023-03-19T05:23:16;100997.09;;;10.19;98.63
48053;BME280;33824;51.600;5.718;2023-03-19T05:25:42;100996.59;;;10.15;98.90
48053;BME280;33824;51.600;5.718;2023-03-19T05:28:08;100986.38;;;10.10;99.13
48053;BME280;33824;51.600;5.718;2023-03-19T05:30:34;100995.72;;;10.06;99.56
48053;BME280;33824;51.600;5.718;2023-03-19T05:33:00;100993.19;;;10.05;99.50
48053;BME280;33824;51.600;5.718;2023-03-19T05:35:27;100993.38;;;10.03;100.00
48053;BME280;33824;51.600;5.718;2023-03-19T05:37:54;100992.72;;;10.01;99.94
48053;BME280;33824;51.600;5.718;2023-03-19T05:40:20;100998.03;;;10.01;99.95
48053;BME280;33824;51.600;5.718;2023-03-19T05:42:46;101007.84;;;10.01;100.00
48053;BME280;33824;51.600;5.718;2023-03-19T05:45:12;100999.22;;;9.99;100.00
48053;BME280;33824;51.600;5.718;2023-03-19T05:47:38;101001.88;;;9.99;100.00
48053;BME280;33824;51.600;5.718;2023-03-19T05:50:05;101010.03;;;9.97;100.00
48053;BME280;33824;51.600;5.718;2023-03-19T05:52:31;101014.69;;;9.95;100.00
48053;BME280;33824;51.600;5.718;2023-03-19T05:54:56;101015.88;;;9.93;100.00
48053;BME280;33824;51.600;5.718;2023-03-19T05:57:22;101021.50;;;9.90;100.00
48053;BME280;33824;51.600;5.718;2023-03-19T05:59:48;101020.00;;;9.87;100.00
48053;BME280;33824;51.600;5.718;2023-03-19T06:02:13;101021.69;;;9.88;100.00
48053;BME280;33824;51.600;5.718;2023-03-19T06:04:39;101028.84;;;9.88;100.00
48053;BME280;33824;51.600;5.718;2023-03-19T06:07:05;101028.50;;;9.91;100.00
48053;BME280;33824;51.600;5.718;2023-03-19T06:09:31;101023.34;;;9.97;100.00
48053;BME280;33824;51.600;5.718;2023-03-19T06:11:57;101025.69;;;10.00;100.00
48053;BME280;33824;51.600;5.718;2023-03-19T06:14:22;101038.00;;;10.01;100.00
48053;BME280;33824;51.600;5.718;2023-03-19T06:16:48;101035.84;;;10.05;100.00
48053;BME280;33824;51.600;5.718;2023-03-19T06:19:14;101031.84;;;10.09;100.00
48053;BME280;33824;51.600;5.718;2023-03-19T06:21:40;101038.69;;;10.11;100.00
48053;BME280;33824;51.600;5.718;2023-03-19T06:24:05;101046.38;;;10.15;100.00
48053;BME280;33824;51.600;5.718;2023-03-19T06:26:32;101045.50;;;10.14;100.00
48053;BME280;33824;51.600;5.718;2023-03-19T06:28:58;101045.19;;;10.17;100.00
48053;BME280;33824;51.600;5.718;2023-03-19T06:31:24;101048.69;;;10.18;100.00
48053;BME280;33824;51.600;5.718;2023-03-19T06:33:52;101042.19;;;10.20;100.00
48053;BME280;33824;51.600;5.718;2023-03-19T06:36:17;101045.19;;;10.25;100.00
48053;BME280;33824;51.600;5.718;2023-03-19T06:38:43;101054.53;;;10.29;100.00
48053;BME280;33824;51.600;5.718;2023-03-19T06:41:08;101054.53;;;10.37;100.00
48053;BME280;33824;51.600;5.718;2023-03-19T06:43:34;101052.22;;;10.42;100.00
48053;BME280;33824;51.600;5.718;2023-03-19T06:46:05;101056.50;;;10.43;100.00
48053;BME280;33824;51.600;5.718;2023-03-19T06:48:32;101056.03;;;10.48;100.00
48053;BME280;33824;51.600;5.718;2023-03-19T06:50:58;101062.53;;;10.53;100.00
48053;BME280;33824;51.600;5.718;2023-03-19T06:53:24;101072.66;;;10.58;100.00
48053;BME280;33824;51.600;5.718;2023-03-19T06:55:50;101069.50;;;10.63;100.00
48053;BME280;33824;51.600;5.718;2023-03-19T06:58:15;101072.84;;;10.65;100.00
48053;BME280;33824;51.600;5.718;2023-03-19T07:00:41;101076.00;;;10.68;100.00
48053;BME280;33824;51.600;5.718;2023-03-19T07:03:07;101082.97;;;10.69;100.00
48053;BME280;33824;51.600;5.718;2023-03-19T07:05:33;101073.47;;;10.75;100.00
48053;BME280;33824;51.600;5.718;2023-03-19T07:07:59;101078.81;;;10.83;100.00
48053;BME280;33824;51.600;5.718;2023-03-19T07:10:25;101079.47;;;10.85;100.00
48053;BME280;33824;51.600;5.718;2023-03-19T07:12:50;101082.63;;;10.88;100.00
48053;BME280;33824;51.600;5.718;2023-03-19T07:15:16;101085.63;;;10.93;100.00
48053;BME280;33824;51.600;5.718;2023-03-19T07:17:44;101085.09;;;10.98;100.00
48053;BME280;33824;51.600;5.718;2023-03-19T07:20:11;101088.91;;;11.03;100.00
48053;BME280;33824;51.600;5.718;2023-03-19T07:22:36;101090.09;;;11.01;100.00
48053;BME280;33824;51.600;5.718;2023-03-19T07:25:02;101097.44;;;10.99;100.00
48053;BME280;33824;51.600;5.718;2023-03-19T07:27:27;101094.09;;;11.05;100.00
48053;BME280;33824;51.600;5.718;2023-03-19T07:29:53;101089.34;;;11.31;100.00
48053;BME280;33824;51.600;5.718;2023-03-19T07:32:20;101097.91;;;11.57;100.00
48053;BME280;33824;51.600;5.718;2023-03-19T07:34:46;101098.69;;;11.74;100.00
48053;BME280;33824;51.600;5.718;2023-03-19T07:37:12;101100.25;;;11.91;100.00
48053;BME280;33824;51.600;5.718;2023-03-19T07:39:38;101097.16;;;12.02;100.00
48053;BME280;33824;51.600;5.718;2023-03-19T07:42:03;101097.84;;;12.05;100.00
48053;BME280;33824;51.600;5.718;2023-03-19T07:44:30;101099.63;;;12.12;100.00
48053;BME280;33824;51.600;5.718;2023-03-19T07:46:55;101101.22;;;12.21;100.00
48053;BME280;33824;51.600;5.718;2023-03-19T07:49:22;101099.97;;;12.32;100.00
48053;BME280;33824;51.600;5.718;2023-03-19T07:51:47;101091.06;;;12.39;100.00
48053;BME280;33824;51.600;5.718;2023-03-19T07:54:13;101098.16;;;12.32;100.00
48053;BME280;33824;51.600;5.718;2023-03-19T07:56:38;101099.75;;;12.56;100.00
48053;BME280;33824;51.600;5.718;2023-03-19T07:59:05;101108.34;;;12.52;100.00
48053;BME280;33824;51.600;5.718;2023-03-19T08:01:30;101109.09;;;12.60;100.00
48053;BME280;33824;51.600;5.718;2023-03-19T08:03:56;101100.84;;;12.84;100.00
48053;BME280;33824;51.600;5.718;2023-03-19T08:06:21;101115.53;;;12.88;98.72
48053;BME280;33824;51.600;5.718;2023-03-19T08:08:48;101105.59;;;12.97;98.31
48053;BME280;33824;51.600;5.718;2023-03-19T08:11:13;101111.03;;;13.04;97.13
48053;BME280;33824;51.600;5.718;2023-03-19T08:13:40;101107.59;;;12.95;96.88
48053;BME280;33824;51.600;5.718;2023-03-19T08:16:07;101113.69;;;12.89;96.39
48053;BME280;33824;51.600;5.718;2023-03-19T08:18:33;101125.81;;;13.29;96.03
48053;BME280;33824;51.600;5.718;2023-03-19T08:20:59;101115.56;;;13.32;93.00
48053;BME280;33824;51.600;5.718;2023-03-19T08:23:25;101127.50;;;13.15;93.20
48053;BME280;33824;51.600;5.718;2023-03-19T08:25:51;101132.94;;;13.22;93.30
48053;BME280;33824;51.600;5.718;2023-03-19T08:28:18;101128.97;;;13.32;92.71
48053;BME280;33824;51.600;5.718;2023-03-19T08:30:44;101131.28;;;13.50;92.47
48053;BME280;33824;51.600;5.718;2023-03-19T08:33:10;101127.84;;;13.71;92.08
48053;BME280;33824;51.600;5.718;2023-03-19T08:35:36;101138.16;;;13.74;90.16
48053;BME280;33824;51.600;5.718;2023-03-19T08:38:01;101137.06;;;13.83;89.32
48053;BME280;33824;51.600;5.718;2023-03-19T08:40:27;101138.41;;;13.58;88.59
48053;BME280;33824;51.600;5.718;2023-03-19T08:42:53;101133.50;;;13.61;88.90
48053;BME280;33824;51.600;5.718;2023-03-19T08:45:19;101151.78;;;13.58;88.47
48053;BME280;33824;51.600;5.718;2023-03-19T08:47:45;101141.88;;;13.73;89.07
48053;BME280;33824;51.600;5.718;2023-03-19T08:50:11;101149.00;;;13.80;88.50
48053;BME280;33824;51.600;5.718;2023-03-19T08:52:37;101139.09;;;13.66;87.02
48053;BME280;33824;51.600;5.718;2023-03-19T08:55:03;101150.28;;;13.84;87.62
48053;BME280;33824;51.600;5.718;2023-03-19T08:57:30;101159.34;;;13.83;86.15
48053;BME280;33824;51.600;5.718;2023-03-19T08:59:56;101151.41;;;14.11;87.31
48053;BME280;33824;51.600;5.718;2023-03-19T09:02:22;101161.94;;;14.13;85.96
48053;BME280;33824;51.600;5.718;2023-03-19T09:04:48;101158.44;;;14.12;85.46
48053;BME280;33824;51.600;5.718;2023-03-19T09:07:14;101156.34;;;14.29;86.22
48053;BME280;33824;51.600;5.718;2023-03-19T09:09:42;101157.09;;;14.59;84.28
48053;BME280;33824;51.600;5.718;2023-03-19T09:12:10;101158.94;;;14.79;84.22
48053;BME280;33824;51.600;5.718;2023-03-19T09:14:36;101159.81;;;14.86;84.13
48053;BME280;33824;51.600;5.718;2023-03-19T09:17:03;101159.13;;;15.06;82.45
48053;BME280;33824;51.600;5.718;2023-03-19T09:19:29;101162.84;;;15.05;81.73
48053;BME280;33824;51.600;5.718;2023-03-19T09:21:54;101163.81;;;15.25;82.00
48053;BME280;33824;51.600;5.718;2023-03-19T09:24:20;101171.97;;;15.45;80.68
48053;BME280;33824;51.600;5.718;2023-03-19T09:26:49;101167.28;;;15.19;80.10
48053;BME280;33824;51.600;5.718;2023-03-19T09:29:14;101169.75;;;15.14;80.18
48053;BME280;33824;51.600;5.718;2023-03-19T09:31:41;101173.81;;;15.37;80.66
48053;BME280;33824;51.600;5.718;2023-03-19T09:34:07;101178.72;;;15.55;79.32
48053;BME280;33824;51.600;5.718;2023-03-19T09:36:34;101183.00;;;15.50;80.48
48053;BME280;33824;51.600;5.718;2023-03-19T09:39:00;101181.31;;;15.49;80.08
48053;BME280;33824;51.600;5.718;2023-03-19T09:44:02;101199.91;;;15.16;77.09
48053;BME280;33824;51.600;5.718;2023-03-19T09:46:49;101202.59;;;15.16;75.58
48053;BME280;33824;51.600;5.718;2023-03-19T09:49:22;101205.13;;;15.24;74.78
48053;BME280;33824;51.600;5.718;2023-03-19T09:54:43;101208.84;;;15.23;74.53
48053;BME280;33824;51.600;5.718;2023-03-19T09:57:11;101207.22;;;15.56;76.72
48053;BME280;33824;51.600;5.718;2023-03-19T09:59:38;101215.81;;;15.73;73.89
48053;BME280;33824;51.600;5.718;2023-03-19T10:02:23;101211.03;;;15.68;75.46
48053;BME280;33824;51.600;5.718;2023-03-19T10:05:16;101204.00;;;15.67;73.59
48053;BME280;33824;51.600;5.718;2023-03-19T10:10:47;101208.28;;;15.96;74.76
48053;BME280;33824;51.600;5.718;2023-03-19T10:15:43;101199.53;;;16.48;74.67
48053;BME280;33824;51.600;5.718;2023-03-19T10:18:22;101201.75;;;16.25;71.74
48053;BME280;33824;51.600;5.718;2023-03-19T10:20:59;101196.41;;;16.31;73.14
48053;BME280;33824;51.600;5.718;2023-03-19T10:23:38;101202.19;;;16.28;72.08
48053;BME280;33824;51.600;5.718;2023-03-19T10:26:10;101202.88;;;16.50;72.81
48053;BME280;33824;51.600;5.718;2023-03-19T10:28:37;101206.59;;;16.56;72.62
48053;BME280;33824;51.600;5.718;2023-03-19T10:31:26;101218.47;;;16.61;73.27
48053;BME280;33824;51.600;5.718;2023-03-19T10:36:37;101202.31;;;17.01;72.25
48053;BME280;33824;51.600;5.718;2023-03-19T10:39:04;101212.69;;;16.91;71.63
48053;BME280;33824;51.600;5.718;2023-03-19T10:41:45;101202.13;;;17.15;72.18
48053;BME280;33824;51.600;5.718;2023-03-19T10:44:16;101209.59;;;16.81;70.79
48053;BME280;33824;51.600;5.718;2023-03-19T10:46:46;101201.50;;;17.13;72.11
48053;BME280;33824;51.600;5.718;2023-03-19T10:49:12;101207.88;;;17.39;71.86
48053;BME280;33824;51.600;5.718;2023-03-19T10:51:38;101212.06;;;17.41;70.13
48053;BME280;33824;51.600;5.718;2023-03-19T10:54:24;101213.94;;;17.08;70.13
48053;BME280;33824;51.600;5.718;2023-03-19T10:56:54;101218.91;;;17.37;71.40
48053;BME280;33824;51.600;5.718;2023-03-19T11:02:02;101218.38;;;17.99;67.15
48053;BME280;33824;51.600;5.718;2023-03-19T11:04:28;101216.50;;;17.93;66.69
48053;BME280;33824;51.600;5.718;2023-03-19T11:07:11;101218.25;;;17.48;65.36
48053;BME280;33824;51.600;5.718;2023-03-19T11:09:39;101211.75;;;17.95;65.11
48053;BME280;33824;51.600;5.718;2023-03-19T11:12:07;101228.16;;;17.87;65.33
48053;BME280;33824;51.600;5.718;2023-03-19T11:14:40;101226.56;;;17.53;64.97
48053;BME280;33824;51.600;5.718;2023-03-19T11:17:46;101225.34;;;17.23;64.35
48053;BME280;33824;51.600;5.718;2023-03-19T11:20:30;101223.06;;;17.07;65.47
48053;BME280;33824;51.600;5.718;2023-03-19T11:22:57;101220.78;;;17.10;65.70
48053;BME280;33824;51.600;5.718;2023-03-19T11:25:33;101225.31;;;17.36;64.73
48053;BME280;33824;51.600;5.718;2023-03-19T11:28:08;101221.13;;;17.80;64.23
48053;BME280;33824;51.600;5.718;2023-03-19T11:33:24;101226.97;;;17.77;63.61
48053;BME280;33824;51.600;5.718;2023-03-19T11:36:04;101227.59;;;17.52;63.01
48053;BME280;33824;51.600;5.718;2023-03-19T11:38:40;101231.91;;;17.86;63.05
48053;BME280;33824;51.600;5.718;2023-03-19T11:41:26;101225.50;;;17.54;63.26
48053;BME280;33824;51.600;5.718;2023-03-19T11:44:06;101231.13;;;17.40;63.79
48053;BME280;33824;51.600;5.718;2023-03-19T11:46:46;101237.38;;;17.14;67.42
48053;BME280;33824;51.600;5.718;2023-03-19T11:49:21;101240.66;;;17.16;67.24
48053;BME280;33824;51.600;5.718;2023-03-19T11:57:45;101228.88;;;17.10;68.27
48053;BME280;33824;51.600;5.718;2023-03-19T12:17:05;101227.56;;;16.67;70.06
48053;BME280;33824;51.600;5.718;2023-03-19T12:19:47;101225.94;;;16.79;70.22
48053;BME280;33824;51.600;5.718;2023-03-19T12:22:28;101228.22;;;16.75;69.59
48053;BME280;33824;51.600;5.718;2023-03-19T12:28:01;101227.56;;;16.67;70.33
48053;BME280;33824;51.600;5.718;2023-03-19T12:30:42;101223.44;;;16.64;70.36
48053;BME280;33824;51.600;5.718;2023-03-19T12:33:35;101231.50;;;16.64;71.05
48053;BME280;33824;51.600;5.718;2023-03-19T12:36:10;101237.50;;;16.60;69.56
48053;BME280;33824;51.600;5.718;2023-03-19T12:38:40;101229.00;;;16.63;69.87
48053;BME280;33824;51.600;5.718;2023-03-19T12:41:09;101228.84;;;16.77;69.70
48053;BME280;33824;51.600;5.718;2023-03-19T12:43:43;101222.03;;;16.88;69.20
48053;BME280;33824;51.600;5.718;2023-03-19T12:46:15;101227.00;;;17.04;70.15
48053;BME280;33824;51.600;5.718;2023-03-19T12:48:50;101229.06;;;16.89;68.95
48053;BME280;33824;51.600;5.718;2023-03-19T12:51:23;101233.63;;;16.95;68.64
48053;BME280;33824;51.600;5.718;2023-03-19T12:54:13;101232.56;;;16.83;68.82
48053;BME280;33824;51.600;5.718;2023-03-19T12:59:43;101237.56;;;16.93;67.14
48053;BME280;33824;51.600;5.718;2023-03-19T13:02:45;101234.88;;;16.93;67.91
48053;BME280;33824;51.600;5.718;2023-03-19T13:08:16;101233.59;;;17.74;67.81
48053;BME280;33824;51.600;5.718;2023-03-19T13:10:44;101229.41;;;18.36;67.65
48053;BME280;33824;51.600;5.718;2023-03-19T13:15:58;101238.84;;;18.13;65.14
48053;BME280;33824;51.600;5.718;2023-03-19T13:18:38;101237.25;;;17.93;67.09
48053;BME280;33824;51.600;5.718;2023-03-19T13:21:21;101236.09;;;17.69;66.95
48053;BME280;33824;51.600;5.718;2023-03-19T13:23:56;101237.97;;;17.62;67.53
48053;BME280;33824;51.600;5.718;2023-03-19T13:26:23;101237.56;;;17.58;67.98
48053;BME280;33824;51.600;5.718;2023-03-19T13:31:35;101248.34;;;17.45;67.94
48053;BME280;33824;51.600;5.718;2023-03-19T13:36:44;101248.97;;;17.34;67.78
48053;BME280;33824;51.600;5.718;2023-03-19T13:39:15;101246.25;;;17.41;68.46
48053;BME280;33824;51.600;5.718;2023-03-19T13:44:26;101253.75;;;17.25;67.87
48053;BME280;33824;51.600;5.718;2023-03-19T13:46:52;101260.78;;;17.33;69.16
48053;BME280;33824;51.600;5.718;2023-03-19T13:51:46;101262.03;;;17.31;68.52
48053;BME280;33824;51.600;5.718;2023-03-19T13:54:16;101260.78;;;17.20;68.95
48053;BME280;33824;51.600;5.718;2023-03-19T13:59:28;101267.00;;;17.14;69.06
48053;BME280;33824;51.600;5.718;2023-03-19T14:01:55;101267.84;;;17.14;68.95